sensor_id;sensor_type;location;lat;lon;timestamp;pressure;altitude;pressure_sealevel;temperature;humidity
62057;BME280;48016;50.284;18.860;2022-09-03T00:02:37;98409.75;;;11.35;61.68
62057;BME280;48016;50.284;18.860;2022-09-03T00:10:07;98415.11;;;11.29;61.70
62057;BME280;48016;50.284;18.860;2022-09-03T00:12:39;98409.13;;;11.27;61.62
62057;BME280;48016;50.284;18.860;2022-09-03T00:15:17;98410.21;;;11.26;61.49
62057;BME280;48016;50.284;18.860;2022-09-03T00:17:58;98403.98;;;11.26;61.49
62057;BME280;48016;50.284;18.860;2022-09-03T00:20:30;98393.41;;;11.24;61.47
62057;BME280;48016;50.284;18.860;2022-09-03T00:23:04;98395.54;;;11.22;61.69
62057;BME280;48016;50.284;18.860;2022-09-03T00:25:42;98399.60;;;11.20;61.66
62057;BME280;48016;50.284;18.860;2022-09-03T00:28:25;98389.83;;;11.19;61.69
62057;BME280;48016;50.284;18.860;2022-09-03T00:31:12;98390.11;;;11.17;61.53
62057;BME280;48016;50.284;18.860;2022-09-03T00:33:43;98391.16;;;11.16;61.61
62057;BME280;48016;50.284;18.860;2022-09-03T00:36:22;98381.66;;;11.14;61.65
62057;BME280;48016;50.284;18.860;2022-09-03T00:38:52;98390.05;;;11.12;61.84
62057;BME280;48016;50.284;18.860;2022-09-03T00:41:42;98394.65;;;11.12;61.83
62057;BME280;48016;50.284;18.860;2022-09-03T00:44:35;98393.27;;;11.09;61.84
62057;BME280;48016;50.284;18.860;2022-09-03T00:47:25;98381.88;;;11.07;61.87
62057;BME280;48016;50.284;18.860;2022-09-03T00:53:05;98386.72;;;11.05;61.99
62057;BME280;48016;50.284;18.860;2022-09-03T01:00:51;98373.16;;;11.00;62.30
62057;BME280;48016;50.284;18.860;2022-09-03T01:03:38;98379.90;;;10.97;62.81
62057;BME280;48016;50.284;18.860;2022-09-03T01:06:09;98383.92;;;10.95;62.94
62057;BME280;48016;50.284;18.860;2022-09-03T01:11:36;98386.84;;;10.88;63.68
62057;BME280;48016;50.284;18.860;2022-09-03T01:14:18;98380.56;;;10.82;63.54
62057;BME280;48016;50.284;18.860;2022-09-03T01:28:22;98388.45;;;10.62;64.70
62057;BME280;48016;50.284;18.860;2022-09-03T01:31:08;98388.63;;;10.55;64.92
62057;BME280;48016;50.284;18.860;2022-09-03T01:33:42;98393.72;;;10.52;65.05
62057;BME280;48016;50.284;18.860;2022-09-03T01:37:07;98394.50;;;10.47;65.61
62057;BME280;48016;50.284;18.860;2022-09-03T01:45:39;98398.95;;;10.36;65.91
62057;BME280;48016;50.284;18.860;2022-09-03T01:48:30;98401.34;;;10.33;66.06
62057;BME280;48016;50.284;18.860;2022-09-03T01:51:20;98403.47;;;10.31;65.99
62057;BME280;48016;50.284;18.860;2022-09-03T02:02:06;98397.15;;;10.25;65.94
62057;BME280;48016;50.284;18.860;2022-09-03T02:04:35;98412.08;;;10.28;66.00
62057;BME280;48016;50.284;18.860;2022-09-03T02:07:02;98401.47;;;10.26;66.06
62057;BME280;48016;50.284;18.860;2022-09-03T02:09:31;98405.25;;;10.25;66.14
62057;BME280;48016;50.284;18.860;2022-09-03T02:12:13;98403.63;;;10.24;66.14
62057;BME280;48016;50.284;18.860;2022-09-03T02:14:42;98400.35;;;10.22;65.82
62057;BME280;48016;50.284;18.860;2022-09-03T02:17:09;98400.35;;;10.22;65.88
62057;BME280;48016;50.284;18.860;2022-09-03T02:19:38;98404.95;;;10.22;66.21
62057;BME280;48016;50.284;18.860;2022-09-03T02:22:05;98401.91;;;10.18;66.24
62057;BME280;48016;50.284;18.860;2022-09-03T02:24:32;98389.47;;;10.17;66.01
62057;BME280;48016;50.284;18.860;2022-09-03T02:26:59;98398.08;;;10.14;66.51
62057;BME280;48016;50.284;18.860;2022-09-03T02:29:26;98400.20;;;10.12;66.57
62057;BME280;48016;50.284;18.860;2022-09-03T02:31:54;98392.36;;;10.10;66.32
62057;BME280;48016;50.284;18.860;2022-09-03T02:34:21;98397.77;;;10.10;66.35
62057;BME280;48016;50.284;18.860;2022-09-03T02:36:48;98400.20;;;10.12;66.57
62057;BME280;48016;50.284;18.860;2022-09-03T02:39:16;98401.28;;;10.11;66.55
62057;BME280;48016;50.284;18.860;2022-09-03T02:41:43;98410.20;;;10.11;66.34
62057;BME280;48016;50.284;18.860;2022-09-03T02:44:29;98407.76;;;10.10;66.62
62057;BME280;48016;50.284;18.860;2022-09-03T02:46:59;98402.86;;;10.07;66.80
62057;BME280;48016;50.284;18.860;2022-09-03T02:49:27;98402.86;;;10.07;66.74
62057;BME280;48016;50.284;18.860;2022-09-03T02:52:00;98406.60;;;10.06;67.07
62057;BME280;48016;50.284;18.860;2022-09-03T02:54:27;98402.28;;;10.05;66.54
62057;BME280;48016;50.284;18.860;2022-09-03T02:56:54;98407.91;;;10.03;66.57
62057;BME280;48016;50.284;18.860;2022-09-03T02:59:21;98414.13;;;10.04;66.60
62057;BME280;48016;50.284;18.860;2022-09-03T03:01:49;98403.33;;;10.04;67.11
62057;BME280;48016;50.284;18.860;2022-09-03T03:04:16;98413.08;;;10.05;66.97
62057;BME280;48016;50.284;18.860;2022-09-03T03:06:43;98403.91;;;10.06;66.64
62057;BME280;48016;50.284;18.860;2022-09-03T03:09:10;98399.89;;;10.08;67.13
62057;BME280;48016;50.284;18.860;2022-09-03T03:11:37;98397.45;;;10.07;66.94
62057;BME280;48016;50.284;18.860;2022-09-03T03:14:05;98401.20;;;10.06;67.18
62057;BME280;48016;50.284;18.860;2022-09-03T03:16:33;98392.52;;;10.04;67.19
62057;BME280;48016;50.284;18.860;2022-09-03T03:19:00;98399.27;;;10.01;67.33
62057;BME280;48016;50.284;18.860;2022-09-03T03:21:27;98407.60;;;10.00;67.53
62057;BME280;48016;50.284;18.860;2022-09-03T03:23:54;98405.98;;;9.99;67.30
62057;BME280;48016;50.284;18.860;2022-09-03T03:26:21;98409.17;;;9.95;67.07
62057;BME280;48016;50.284;18.860;2022-09-03T03:28:55;98400.50;;;9.93;67.24
62057;BME280;48016;50.284;18.860;2022-09-03T03:31:23;98416.13;;;9.91;67.27
62057;BME280;48016;50.284;18.860;2022-09-03T03:33:55;98414.50;;;9.90;67.67
62057;BME280;48016;50.284;18.860;2022-09-03T03:36:25;98409.33;;;9.89;68.33
62057;BME280;48016;50.284;18.860;2022-09-03T03:38:54;98405.81;;;9.88;67.97
62057;BME280;48016;50.284;18.860;2022-09-03T03:41:27;98406.63;;;9.89;68.04
62057;BME280;48016;50.284;18.860;2022-09-03T03:44:02;98401.49;;;9.87;68.38
62057;BME280;48016;50.284;18.860;2022-09-03T03:46:39;98401.49;;;9.87;68.71
62057;BME280;48016;50.284;18.860;2022-09-03T03:49:07;98406.89;;;9.87;68.38
62057;BME280;48016;50.284;18.860;2022-09-03T03:51:35;98404.19;;;9.87;68.44
62057;BME280;48016;50.284;18.860;2022-09-03T03:54:04;98401.49;;;9.87;68.30
62057;BME280;48016;50.284;18.860;2022-09-03T03:56:32;98398.79;;;9.87;68.35
62057;BME280;48016;50.284;18.860;2022-09-03T03:59:00;98399.60;;;9.88;68.42
62057;BME280;48016;50.284;18.860;2022-09-03T04:01:27;98405.00;;;9.88;69.02
62057;BME280;48016;50.284;18.860;2022-09-03T04:03:57;98396.09;;;9.87;68.50
62057;BME280;48016;50.284;18.860;2022-09-03T04:06:26;98398.53;;;9.89;68.35
62057;BME280;48016;50.284;18.860;2022-09-03T04:08:53;98402.07;;;9.89;69.03
62057;BME280;48016;50.284;18.860;2022-09-03T04:11:21;98399.11;;;9.91;68.85
62057;BME280;48016;50.284;18.860;2022-09-03T04:13:50;98405.63;;;9.95;68.63
62057;BME280;48016;50.284;18.860;2022-09-03T04:16:27;98409.72;;;9.98;68.72
62057;BME280;48016;50.284;18.860;2022-09-03T04:18:55;98417.83;;;9.98;68.86
62057;BME280;48016;50.284;18.860;2022-09-03T04:21:25;98411.92;;;10.01;68.94
62057;BME280;48016;50.284;18.860;2022-09-03T04:23:53;98412.50;;;10.03;69.29
62057;BME280;48016;50.284;18.860;2022-09-03T04:26:24;98409.30;;;10.06;68.99
62057;BME280;48016;50.284;18.860;2022-09-03T04:28:52;98408.80;;;10.09;69.35
62057;BME280;48016;50.284;18.860;2022-09-03T04:31:19;98413.47;;;10.13;69.09
62057;BME280;48016;50.284;18.860;2022-09-03T04:33:47;98422.70;;;10.17;69.54
62057;BME280;48016;50.284;18.860;2022-09-03T04:36:20;98418.69;;;10.20;69.41
62057;BME280;48016;50.284;18.860;2022-09-03T04:38:50;98418.19;;;10.23;69.30
62057;BME280;48016;50.284;18.860;2022-09-03T04:41:22;98419.58;;;10.26;69.42
62057;BME280;48016;50.284;18.860;2022-09-03T04:43:55;98415.59;;;10.28;69.88
62057;BME280;48016;50.284;18.860;2022-09-03T04:46:24;98429.18;;;10.33;69.05
62057;BME280;48016;50.284;18.860;2022-09-03T04:48:53;98425.47;;;10.39;69.23
62057;BME280;48016;50.284;18.860;2022-09-03T04:51:23;98434.20;;;10.47;69.22
62057;BME280;48016;50.284;18.860;2022-09-03T04:54:00;98430.75;;;10.51;69.66
62057;BME280;48016;50.284;18.860;2022-09-03T04:56:32;98424.03;;;10.54;69.13
62057;BME280;48016;50.284;18.860;2022-09-03T04:59:05;98424.65;;;10.61;69.12
62057;BME280;48016;50.284;18.860;2022-09-03T05:01:36;98435.53;;;10.66;69.06
62057;BME280;48016;50.284;18.860;2022-09-03T05:04:04;98433.47;;;10.73;68.84
62057;BME280;48016;50.284;18.860;2022-09-03T05:06:32;98435.16;;;10.79;68.93
62057;BME280;48016;50.284;18.860;2022-09-03T05:09:00;98429.28;;;10.88;68.76
62057;BME280;48016;50.284;18.860;2022-09-03T05:11:28;98435.89;;;10.97;68.78
62057;BME280;48016;50.284;18.860;2022-09-03T05:13:57;98438.69;;;11.07;68.47
62057;BME280;48016;50.284;18.860;2022-09-03T05:16:26;98429.61;;;11.18;68.75
62057;BME280;48016;50.284;18.860;2022-09-03T05:18:56;98425.94;;;11.29;68.62
62057;BME280;48016;50.284;18.860;2022-09-03T05:21:25;98423.36;;;11.45;68.30
62057;BME280;48016;50.284;18.860;2022-09-03T05:23:53;98424.85;;;11.63;68.17
62057;BME280;48016;50.284;18.860;2022-09-03T05:26:25;98417.16;;;11.82;67.59
62057;BME280;48016;50.284;18.860;2022-09-03T05:28:54;98416.23;;;12.03;67.09
62057;BME280;48016;50.284;18.860;2022-09-03T05:31:24;98430.19;;;12.22;66.67
62057;BME280;48016;50.284;18.860;2022-09-03T05:33:55;98422.97;;;12.43;66.37
62057;BME280;48016;50.284;18.860;2022-09-03T05:36:29;98427.14;;;12.66;65.43
62057;BME280;48016;50.284;18.860;2022-09-03T05:38:57;98431.32;;;12.94;65.32
62057;BME280;48016;50.284;18.860;2022-09-03T05:41:26;98435.47;;;13.22;64.84
62057;BME280;48016;50.284;18.860;2022-09-03T05:43:55;98437.97;;;13.49;64.70
62057;BME280;48016;50.284;18.860;2022-09-03T05:46:26;98436.34;;;13.84;64.04
62057;BME280;48016;50.284;18.860;2022-09-03T05:49:01;98438.20;;;14.19;63.62
62057;BME280;48016;50.284;18.860;2022-09-03T05:51:30;98436.52;;;14.44;62.72
62057;BME280;48016;50.284;18.860;2022-09-03T05:53:58;98442.42;;;14.72;62.17
62057;BME280;48016;50.284;18.860;2022-09-03T05:56:27;98441.21;;;14.98;61.30
62057;BME280;48016;50.284;18.860;2022-09-03T05:58:58;98434.25;;;15.26;61.47
62057;BME280;48016;50.284;18.860;2022-09-03T06:01:31;98425.27;;;15.65;60.60
62057;BME280;48016;50.284;18.860;2022-09-03T06:04:04;98423.87;;;16.02;60.42
62057;BME280;48016;50.284;18.860;2022-09-03T06:06:33;98428.45;;;16.36;59.88
62057;BME280;48016;50.284;18.860;2022-09-03T06:09:06;98427.63;;;16.59;59.45
62057;BME280;48016;50.284;18.860;2022-09-03T06:11:35;98430.03;;;16.90;59.18
62057;BME280;48016;50.284;18.860;2022-09-03T06:14:07;98428.94;;;17.29;59.33
62057;BME280;48016;50.284;18.860;2022-09-03T06:16:40;98428.83;;;17.72;58.07
62057;BME280;48016;50.284;18.860;2022-09-03T06:19:08;98438.17;;;18.03;57.18
62057;BME280;48016;50.284;18.860;2022-09-03T06:21:37;98434.06;;;18.20;56.16
62057;BME280;48016;50.284;18.860;2022-09-03T06:24:10;98441.05;;;18.26;55.82
62057;BME280;48016;50.284;18.860;2022-09-03T06:26:38;98430.33;;;18.43;56.15
62057;BME280;48016;50.284;18.860;2022-09-03T06:29:05;98430.92;;;18.26;53.46
62057;BME280;48016;50.284;18.860;2022-09-03T06:31:34;98432.53;;;18.27;54.77
62057;BME280;48016;50.284;18.860;2022-09-03T06:34:01;98425.64;;;18.30;54.76
62057;BME280;48016;50.284;18.860;2022-09-03T06:36:28;98426.27;;;18.41;54.58
62057;BME280;48016;50.284;18.860;2022-09-03T06:38:56;98421.78;;;18.31;54.04
62057;BME280;48016;50.284;18.860;2022-09-03T06:41:26;98419.67;;;18.42;54.57
62057;BME280;48016;50.284;18.860;2022-09-03T06:44:02;98427.30;;;18.72;54.45
62057;BME280;48016;50.284;18.860;2022-09-03T06:46:33;98431.34;;;18.61;52.64
62057;BME280;48016;50.284;18.860;2022-09-03T06:49:00;98422.41;;;18.42;53.40
62057;BME280;48016;50.284;18.860;2022-09-03T06:51:30;98429.36;;;18.06;53.59
62057;BME280;48016;50.284;18.860;2022-09-03T06:54:06;98430.17;;;18.07;54.44
62057;BME280;48016;50.284;18.860;2022-09-03T06:56:35;98417.73;;;18.15;53.86
62057;BME280;48016;50.284;18.860;2022-09-03T06:59:05;98429.51;;;18.29;54.43
62057;BME280;48016;50.284;18.860;2022-09-03T07:01:33;98437.95;;;18.60;53.59
62057;BME280;48016;50.284;18.860;2022-09-03T07:04:02;98443.72;;;18.72;53.31
62057;BME280;48016;50.284;18.860;2022-09-03T07:06:32;98450.42;;;18.94;53.54
62057;BME280;48016;50.284;18.860;2022-09-03T07:09:03;98441.06;;;19.09;53.26
62057;BME280;48016;50.284;18.860;2022-09-03T07:11:30;98445.65;;;19.00;52.18
62057;BME280;48016;50.284;18.860;2022-09-03T07:13:59;98444.33;;;18.97;52.44
62057;BME280;48016;50.284;18.860;2022-09-03T07:16:28;98441.11;;;18.81;52.62
62057;BME280;48016;50.284;18.860;2022-09-03T07:18:56;98441.92;;;18.82;52.17
62057;BME280;48016;50.284;18.860;2022-09-03T07:21:24;98443.02;;;18.67;52.17
62057;BME280;48016;50.284;18.860;2022-09-03T07:23:52;98434.79;;;18.53;52.52
62057;BME280;48016;50.284;18.860;2022-09-03T07:26:23;98440.06;;;18.49;52.94
62057;BME280;48016;50.284;18.860;2022-09-03T07:28:51;98426.58;;;18.67;53.21
62057;BME280;48016;50.284;18.860;2022-09-03T07:31:25;98440.08;;;18.77;53.32
62057;BME280;48016;50.284;18.860;2022-09-03T07:34:00;98426.80;;;18.98;53.26
62057;BME280;48016;50.284;18.860;2022-09-03T07:36:29;98440.08;;;18.77;52.52
62057;BME280;48016;50.284;18.860;2022-09-03T07:38:58;98435.20;;;18.46;52.68
62057;BME280;48016;50.284;18.860;2022-09-03T07:41:26;98454.45;;;18.41;53.41
62057;BME280;48016;50.284;18.860;2022-09-03T07:43:53;98441.89;;;18.40;53.38
62057;BME280;48016;50.284;18.860;2022-09-03T07:46:22;98445.84;;;18.34;53.49
62057;BME280;48016;50.284;18.860;2022-09-03T07:48:51;98461.66;;;18.37;53.51
62057;BME280;48016;50.284;18.860;2022-09-03T07:51:20;98455.23;;;18.28;53.66
62057;BME280;48016;50.284;18.860;2022-09-03T07:53:48;98463.66;;;18.45;53.86
62057;BME280;48016;50.284;18.860;2022-09-03T07:56:17;98456.48;;;18.49;53.02
62057;BME280;48016;50.284;18.860;2022-09-03T07:58:45;98451.42;;;18.43;53.41
62057;BME280;48016;50.284;18.860;2022-09-03T08:01:18;98454.05;;;18.34;54.07
62057;BME280;48016;50.284;18.860;2022-09-03T08:03:48;98450.56;;;18.15;54.22
62057;BME280;48016;50.284;18.860;2022-09-03T08:06:18;98454.39;;;18.14;54.49
62057;BME280;48016;50.284;18.860;2022-09-03T08:08:45;98455.16;;;17.68;55.50
62057;BME280;48016;50.284;18.860;2022-09-03T08:11:15;98454.70;;;17.60;55.61
62057;BME280;48016;50.284;18.860;2022-09-03T08:13:48;98459.64;;;17.58;55.63
62057;BME280;48016;50.284;18.860;2022-09-03T08:16:20;98461.59;;;17.39;55.86
62057;BME280;48016;50.284;18.860;2022-09-03T08:18:47;98457.15;;;17.43;56.19
62057;BME280;48016;50.284;18.860;2022-09-03T08:21:18;98460.69;;;17.62;56.45
62057;BME280;48016;50.284;18.860;2022-09-03T08:23:47;98452.27;;;17.78;56.01
62057;BME280;48016;50.284;18.860;2022-09-03T08:26:16;98453.52;;;17.86;56.09
62057;BME280;48016;50.284;18.860;2022-09-03T08:28:43;98451.28;;;17.88;55.93
62057;BME280;48016;50.284;18.860;2022-09-03T08:31:20;98455.73;;;17.83;55.45
62057;BME280;48016;50.284;18.860;2022-09-03T08:33:50;98458.27;;;17.42;55.92
62057;BME280;48016;50.284;18.860;2022-09-03T08:36:26;98456.25;;;17.29;56.59
62057;BME280;48016;50.284;18.860;2022-09-03T08:38:57;98451.25;;;17.36;56.98
62057;BME280;48016;50.284;18.860;2022-09-03T08:55:27;98455.27;;;17.95;56.33
62057;BME280;48016;50.284;18.860;2022-09-03T08:58:09;98452.61;;;17.90;55.88
62057;BME280;48016;50.284;18.860;2022-09-03T09:00:56;98453.30;;;17.63;56.49
62057;BME280;48016;50.284;18.860;2022-09-03T09:03:52;98449.47;;;17.45;57.11
62057;BME280;48016;50.284;18.860;2022-09-03T09:17:18;98445.04;;;16.63;58.48
62057;BME280;48016;50.284;18.860;2022-09-03T09:22:26;98446.43;;;16.37;59.21
62057;BME280;48016;50.284;18.860;2022-09-03T09:24:58;98459.08;;;16.27;59.49
62057;BME280;48016;50.284;18.860;2022-09-03T09:27:27;98447.70;;;16.20;59.89
62057;BME280;48016;50.284;18.860;2022-09-03T09:29:58;98469.57;;;16.15;60.56
62057;BME280;48016;50.284;18.860;2022-09-03T09:32:27;98452.63;;;16.18;60.47
62057;BME280;48016;50.284;18.860;2022-09-03T09:34:54;98450.36;;;16.25;60.40
62057;BME280;48016;50.284;18.860;2022-09-03T09:37:21;98452.70;;;16.37;60.09
62057;BME280;48016;50.284;18.860;2022-09-03T09:39:59;98445.85;;;16.40;59.82
62057;BME280;48016;50.284;18.860;2022-09-03T09:42:26;98456.19;;;16.43;60.42
62057;BME280;48016;50.284;18.860;2022-09-03T09:44:56;98450.23;;;16.41;60.06
62057;BME280;48016;50.284;18.860;2022-09-03T09:47:37;98467.41;;;16.41;60.16
62057;BME280;48016;50.284;18.860;2022-09-03T09:50:17;98463.74;;;16.51;60.38
62057;BME280;48016;50.284;18.860;2022-09-03T09:52:46;98471.35;;;16.54;60.18
62057;BME280;48016;50.284;18.860;2022-09-03T09:55:18;98462.58;;;16.57;60.10
62057;BME280;48016;50.284;18.860;2022-09-03T09:57:46;98469.11;;;16.61;60.19
62057;BME280;48016;50.284;18.860;2022-09-03T10:00:14;98469.55;;;16.68;60.39
62057;BME280;48016;50.284;18.860;2022-09-03T10:02:50;98471.25;;;16.64;59.56
62057;BME280;48016;50.284;18.860;2022-09-03T10:05:27;98486.28;;;16.62;59.68
62057;BME280;48016;50.284;18.860;2022-09-03T10:08:25;98470.19;;;16.60;60.19
62057;BME280;48016;50.284;18.860;2022-09-03T10:10:51;98461.89;;;16.70;59.57
62057;BME280;48016;50.284;18.860;2022-09-03T10:13:23;98451.78;;;16.95;59.66
62057;BME280;48016;50.284;18.860;2022-09-03T10:16:07;98455.89;;;17.16;59.59
62057;BME280;48016;50.284;18.860;2022-09-03T10:18:42;98466.00;;;17.35;59.38
62057;BME280;48016;50.284;18.860;2022-09-03T10:21:21;98467.05;;;17.39;58.30
62057;BME280;48016;50.284;18.860;2022-09-03T10:24:14;98456.25;;;17.29;58.33
62057;BME280;48016;50.284;18.860;2022-09-03T10:26:47;98456.32;;;17.24;58.32
62057;BME280;48016;50.284;18.860;2022-09-03T10:29:23;98460.45;;;17.21;58.15
62057;BME280;48016;50.284;18.860;2022-09-03T10:35:16;98459.30;;;17.27;58.92
62057;BME280;48016;50.284;18.860;2022-09-03T10:37:59;98454.27;;;17.15;58.63
62057;BME280;48016;50.284;18.860;2022-09-03T10:40:41;98459.21;;;17.13;59.04
62057;BME280;48016;50.284;18.860;2022-09-03T10:46:07;98458.92;;;17.34;58.59
62057;BME280;48016;50.284;18.860;2022-09-03T10:51:31;98442.15;;;17.40;58.30
62057;BME280;48016;50.284;18.860;2022-09-03T11:05:40;98434.27;;;17.39;58.88
62057;BME280;48016;50.284;18.860;2022-09-03T11:08:57;98429.75;;;17.48;58.33
62057;BME280;48016;50.284;18.860;2022-09-03T11:11:36;98426.84;;;17.58;58.04
62057;BME280;48016;50.284;18.860;2022-09-03T11:14:09;98420.02;;;17.75;58.19
62057;BME280;48016;50.284;18.860;2022-09-03T11:16:44;98412.91;;;17.93;57.92
62057;BME280;48016;50.284;18.860;2022-09-03T11:19:15;98423.08;;;18.06;57.11
62057;BME280;48016;50.284;18.860;2022-09-03T11:21:45;98427.14;;;18.09;57.58
62057;BME280;48016;50.284;18.860;2022-09-03T11:24:26;98412.25;;;18.15;57.23
62057;BME280;48016;50.284;18.860;2022-09-03T11:29:54;98428.35;;;18.16;57.08
62057;BME280;48016;50.284;18.860;2022-09-03T11:32:33;98425.25;;;18.23;56.70
62057;BME280;48016;50.284;18.860;2022-09-03T11:35:23;98423.42;;;18.32;57.31
62057;BME280;48016;50.284;18.860;2022-09-03T11:37:58;98423.71;;;18.30;56.63
62057;BME280;48016;50.284;18.860;2022-09-03T11:40:36;98416.31;;;18.17;57.10
62057;BME280;48016;50.284;18.860;2022-09-03T11:45:39;98410.33;;;18.15;57.36
62057;BME280;48016;50.284;18.860;2022-09-03T11:48:17;98414.18;;;18.28;57.17
62057;BME280;48016;50.284;18.860;2022-09-03T11:50:53;98415.13;;;18.37;56.63
62057;BME280;48016;50.284;18.860;2022-09-03T11:53:31;98414.52;;;18.40;56.41
62057;BME280;48016;50.284;18.860;2022-09-03T11:58:36;98417.92;;;18.18;56.64
62057;BME280;48016;50.284;18.860;2022-09-03T12:01:12;98415.59;;;18.12;56.75
62057;BME280;48016;50.284;18.860;2022-09-03T12:04:03;98428.88;;;18.18;57.18
62057;BME280;48016;50.284;18.860;2022-09-03T12:20:39;98424.73;;;17.36;57.76
62057;BME280;48016;50.284;18.860;2022-09-03T12:23:10;98423.98;;;17.12;58.15
62057;BME280;48016;50.284;18.860;2022-09-03T12:25:44;98417.03;;;17.01;58.90
62057;BME280;48016;50.284;18.860;2022-09-03T12:28:20;98410.76;;;17.00;58.41
62057;BME280;48016;50.284;18.860;2022-09-03T12:30:50;98418.89;;;17.05;58.31
62057;BME280;48016;50.284;18.860;2022-09-03T12:33:20;98410.98;;;17.04;58.58
62057;BME280;48016;50.284;18.860;2022-09-03T12:35:58;98408.98;;;17.09;58.67
62057;BME280;48016;50.284;18.860;2022-09-03T12:38:27;98413.36;;;17.10;58.47
62057;BME280;48016;50.284;18.860;2022-09-03T12:40:57;98404.79;;;17.17;58.39
62057;BME280;48016;50.284;18.860;2022-09-03T12:43:28;98417.58;;;17.22;58.44
62057;BME280;48016;50.284;18.860;2022-09-03T12:45:55;98416.84;;;17.16;58.01
62057;BME280;48016;50.284;18.860;2022-09-03T12:48:22;98417.70;;;17.11;58.41
62057;BME280;48016;50.284;18.860;2022-09-03T12:51:01;98417.12;;;17.14;58.34
62057;BME280;48016;50.284;18.860;2022-09-03T12:53:30;98414.11;;;17.16;58.23
62057;BME280;48016;50.284;18.860;2022-09-03T12:56:00;98405.17;;;17.10;58.19
62057;BME280;48016;50.284;18.860;2022-09-03T12:58:58;98401.31;;;17.11;58.42
62057;BME280;48016;50.284;18.860;2022-09-03T13:01:35;98398.00;;;16.96;58.62
62057;BME280;48016;50.284;18.860;2022-09-03T13:04:09;98394.16;;;16.97;58.85
62057;BME280;48016;50.284;18.860;2022-09-03T13:06:49;98392.84;;;17.13;59.00
62057;BME280;48016;50.284;18.860;2022-09-03T13:09:22;98405.25;;;17.24;58.47
62057;BME280;48016;50.284;18.860;2022-09-03T13:11:49;98398.45;;;17.22;58.51
62057;BME280;48016;50.284;18.860;2022-09-03T13:14:18;98408.55;;;17.21;57.93
62057;BME280;48016;50.284;18.860;2022-09-03T13:27:58;98398.06;;;17.09;59.13
62057;BME280;48016;50.284;18.860;2022-09-03T13:30:38;98392.91;;;17.08;59.17
62057;BME280;48016;50.284;18.860;2022-09-03T13:33:33;98400.64;;;17.01;59.23
62057;BME280;48016;50.284;18.860;2022-09-03T13:36:17;98387.23;;;17.04;59.19
62057;BME280;48016;50.284;18.860;2022-09-03T13:38:52;98381.67;;;17.09;59.27
62057;BME280;48016;50.284;18.860;2022-09-03T13:41:37;98385.88;;;17.21;58.84
62057;BME280;48016;50.284;18.860;2022-09-03T13:44:20;98385.22;;;17.29;59.13
62057;BME280;48016;50.284;18.860;2022-09-03T13:47:01;98375.48;;;17.23;59.12
62057;BME280;48016;50.284;18.860;2022-09-03T13:50:01;98370.61;;;17.20;59.10
62057;BME280;48016;50.284;18.860;2022-09-03T13:58:05;98373.68;;;17.51;59.24
62057;BME280;48016;50.284;18.860;2022-09-03T14:03:49;98379.30;;;17.73;58.77
62057;BME280;48016;50.284;18.860;2022-09-03T14:06:42;98382.21;;;17.82;58.50
62057;BME280;48016;50.284;18.860;2022-09-03T14:20:11;98365.61;;;17.59;58.77
62057;BME280;48016;50.284;18.860;2022-09-03T14:22:48;98371.16;;;17.54;58.95
62057;BME280;48016;50.284;18.860;2022-09-03T14:25:19;98365.16;;;17.52;59.46
62057;BME280;48016;50.284;18.860;2022-09-03T14:27:47;98374.48;;;17.51;59.64
62057;BME280;48016;50.284;18.860;2022-09-03T14:35:34;98372.50;;;17.38;60.01
62057;BME280;48016;50.284;18.860;2022-09-03T14:41:21;98363.57;;;17.32;59.71
62057;BME280;48016;50.284;18.860;2022-09-03T14:52:03;98352.48;;;17.43;60.13
62057;BME280;48016;50.284;18.860;2022-09-03T15:07:54;98335.02;;;17.57;60.38
62057;BME280;48016;50.284;18.860;2022-09-03T15:10:38;98339.97;;;17.55;60.43
62057;BME280;48016;50.284;18.860;2022-09-03T15:13:09;98339.16;;;17.55;60.35
62057;BME280;48016;50.284;18.860;2022-09-03T15:26:37;98339.63;;;17.43;60.31
62057;BME280;48016;50.284;18.860;2022-09-03T15:29:35;98345.62;;;17.45;60.79
62057;BME280;48016;50.284;18.860;2022-09-03T15:34:57;98350.28;;;17.45;60.21
62057;BME280;48016;50.284;18.860;2022-09-03T15:37:36;98354.41;;;17.42;60.23
62057;BME280;48016;50.284;18.860;2022-09-03T15:40:30;98351.16;;;17.40;60.19
62057;BME280;48016;50.284;18.860;2022-09-03T15:43:08;98342.55;;;17.33;60.35
62057;BME280;48016;50.284;18.860;2022-09-03T15:45:48;98352.43;;;17.29;60.60
62057;BME280;48016;50.284;18.860;2022-09-03T15:51:46;98348.23;;;17.17;60.65
62057;BME280;48016;50.284;18.860;2022-09-03T15:57:10;98345.50;;;17.17;61.63
62057;BME280;48016;50.284;18.860;2022-09-03T16:10:13;98350.68;;;17.19;61.81
62057;BME280;48016;50.284;18.860;2022-09-03T16:16:05;98352.75;;;17.08;61.60
62057;BME280;48016;50.284;18.860;2022-09-03T16:18:45;;;;16.98;
62057;BME280;48016;50.284;18.860;2022-09-03T16:23:59;98364.03;;;16.83;62.05
62057;BME280;48016;50.284;18.860;2022-09-03T16:26:42;98371.41;;;16.82;62.58
62057;BME280;48016;50.284;18.860;2022-09-03T16:29:16;98361.92;;;16.75;62.49
62057;BME280;48016;50.284;18.860;2022-09-03T16:31:59;98366.41;;;16.65;62.78
62057;BME280;48016;50.284;18.860;2022-09-03T16:35:26;98373.05;;;16.59;62.40
62057;BME280;48016;50.284;18.860;2022-09-03T16:40:39;98364.00;;;16.40;63.66
62057;BME280;48016;50.284;18.860;2022-09-03T16:46:19;98360.42;;;16.20;63.58
62057;BME280;48016;50.284;18.860;2022-09-03T16:49:22;98363.78;;;16.12;63.91
62057;BME280;48016;50.284;18.860;2022-09-03T16:55:26;98360.16;;;15.93;64.58
62057;BME280;48016;50.284;18.860;2022-09-03T16:57:51;98359.70;;;15.86;65.40
62057;BME280;48016;50.284;18.860;2022-09-03T17:00:27;98360.32;;;15.77;65.08
62057;BME280;48016;50.284;18.860;2022-09-03T17:13:51;98358.94;;;15.46;66.13